Big Bear Station Historical Data
Daily Summary for January 5, 2018 Units:  English    Metric   Both
Next Day »
Daily Weekly Monthly Yearly Custom
  High: Low: Average:
Temperature: 55.9 °F 27.9 °F 42.1 °F
Dew Point: 40.0 °F 13.2 °F 25.2 °F
Humidity: 99% 19% 58%
Wind Speed: 4.2mph 0.0mph 1mph
Wind Gust: -999.0mph - -
Wind- - WSW
Pressure: 30.35 in 30.30 in -
Precipitation: 0.00 in    
Historical Graphs
 
 
Tabular Data for January 5, 2018
Time Temperature Dew Point Pressure Wind Wind Speed Wind Gust Humidity Rainfall Rate (Hourly)
00:14 41.9 °F 40.0 °F 30.32 in Calm   -999.0 mph 93% 0 in
00:29 40.3 °F 38.4 °F 30.32 in Calm   -999.0 mph 93% 0 in
01:15 40.1 °F 38.8 °F 30.32 in Calm   -999.0 mph 95% 0 in
01:30 39.2 °F 37.9 °F 30.33 in Calm   -999.0 mph 95% 0 in
01:45 38.8 °F 37.5 °F 30.33 in Calm   -999.0 mph 95% 0 in
02:00 38.1 °F 37.1 °F 30.33 in Calm   -999.0 mph 96% 0 in
02:31 37.0 °F 36.2 °F 30.32 in Calm   -999.0 mph 97% 0 in
02:46 36.5 °F 35.7 °F 30.33 in Calm   -999.0 mph 97% 0 in
03:17 34.9 °F 34.1 °F 30.32 in Calm   -999.0 mph 97% 0 in
03:32 34.7 °F 33.9 °F 30.32 in Calm   -999.0 mph 97% 0 in
03:47 34.0 °F 33.2 °F 30.32 in Calm   -999.0 mph 97% 0 in
04:02 33.3 °F 32.5 °F 30.32 in Calm   -999.0 mph 97% 0 in
04:17 32.5 °F 31.7 °F 30.32 in Calm   -999.0 mph 97% 0 in
04:48 31.3 °F 30.5 °F 30.31 in Calm   -999.0 mph 97% 0 in
05:03 30.9 °F 30.1 °F 30.31 in Calm   -999.0 mph 97% 0 in
05:23 30.4 °F 29.7 °F 30.31 in Calm   -999.0 mph 97% 0 in
05:38 29.8 °F 29.1 °F 30.31 in Calm   -999.0 mph 97% 0 in
05:53 29.3 °F 28.6 °F 30.32 in Calm   -999.0 mph 97% 0 in
06:09 29.3 °F 28.8 °F 30.32 in Calm   -999.0 mph 98% 0 in
06:24 28.8 °F 28.3 °F 30.32 in Calm   -999.0 mph 98% 0 in
06:39 28.2 °F 27.7 °F 30.32 in Calm   -999.0 mph 98% 0 in
06:54 28.2 °F 27.7 °F 30.32 in Calm   -999.0 mph 98% 0 in
07:09 27.9 °F 27.4 °F 30.33 in Calm   -999.0 mph 98% 0 in
07:25 27.9 °F 27.4 °F 30.33 in Calm   -999.0 mph 98% 0 in
07:40 27.9 °F 27.4 °F 30.33 in Calm   -999.0 mph 98% 0 in
07:55 28.2 °F 27.7 °F 30.33 in Calm   -999.0 mph 98% 0 in
08:10 28.9 °F 28.7 °F 30.34 in Calm   -999.0 mph 99% 0 in
08:41 30.2 °F 30.0 °F 30.34 in Calm   -999.0 mph 99% 0 in
09:12 32.7 °F 32.2 °F 30.35 in Calm   -999.0 mph 98% 0 in
09:27 36.0 °F 33.1 °F 30.35 in Calm   -999.0 mph 89% 0 in
09:42 38.1 °F 29.9 °F 30.35 in Calm   -999.0 mph 72% 0 in
09:57 44.4 °F 20.4 °F 30.35 in Calm   -999.0 mph 38% 0 in
10:12 49.1 °F 19.0 °F 30.35 in Calm   -999.0 mph 30% 0 in
10:43 51.4 °F 20.2 °F 30.35 in WNW 3.7 mph -999.0 mph 29% 0 in
10:58 53.1 °F 18.2 °F 30.35 in North 3.7 mph -999.0 mph 25% 0 in
11:13 54.5 °F 17.4 °F 30.35 in WNW 1.7 mph -999.0 mph 23% 0 in
11:29 54.7 °F 13.2 °F 30.35 in WNW 2.7 mph -999.0 mph 19% 0 in
11:44 54.7 °F 15.5 °F 30.34 in South 2.2 mph -999.0 mph 21% 0 in
12:00 55.2 °F 20.0 °F 30.34 in WNW 3.2 mph -999.0 mph 25% 0 in
12:15 55.9 °F 22.4 °F 30.34 in SSE 1.1 mph -999.0 mph 27% 0 in
12:31 54.3 °F 24.3 °F 30.33 in NNW 3.7 mph -999.0 mph 31% 0 in
12:46 54.7 °F 23.9 °F 30.32 in WNW 3.2 mph -999.0 mph 30% 0 in
13:01 55.2 °F 22.6 °F 30.32 in NNW 4.2 mph -999.0 mph 28% 0 in
13:16 54.1 °F 21.7 °F 30.31 in NW 3.2 mph -999.0 mph 28% 0 in
13:31 53.6 °F 20.4 °F 30.31 in NW 4.2 mph -999.0 mph 27% 0 in
14:17 53.8 °F 19.7 °F 30.30 in NNW 3.2 mph -999.0 mph 26% 0 in
14:47 52.9 °F 19.8 °F 30.30 in North 4.2 mph -999.0 mph 27% 0 in
15:03 52.3 °F 24.0 °F 30.30 in WNW 1.7 mph -999.0 mph 33% 0 in
15:18 52.0 °F 26.5 °F 30.31 in North 2.2 mph -999.0 mph 37% 0 in
15:33 51.3 °F 27.2 °F 30.31 in WNW 1.1 mph -999.0 mph 39% 0 in
15:49 50.0 °F 26.0 °F 30.31 in South 1.7 mph -999.0 mph 39% 0 in
16:04 49.3 °F 27.7 °F 30.30 in NW 2.7 mph -999.0 mph 43% 0 in
16:20 48.6 °F 27.7 °F 30.31 in Calm   -999.0 mph 44% 0 in
16:35 48.0 °F 28.2 °F 30.31 in West 1.7 mph -999.0 mph 46% 0 in
16:50 47.7 °F 23.3 °F 30.31 in WSW 2.2 mph -999.0 mph 38% 0 in
17:05 47.7 °F 21.4 °F 30.31 in NE 3.2 mph -999.0 mph 35% 0 in
17:36 47.1 °F 20.8 °F 30.32 in NNW 2.2 mph -999.0 mph 35% 0 in
17:51 46.8 °F 21.9 °F 30.32 in Calm   -999.0 mph 37% 0 in
18:06 46.9 °F 24.4 °F 30.33 in NNE 1.7 mph -999.0 mph 41% 0 in
18:21 46.6 °F 24.1 °F 30.33 in Calm   -999.0 mph 41% 0 in
18:37 46.0 °F 21.8 °F 30.34 in ESE 1.7 mph -999.0 mph 38% 0 in
19:08 44.4 °F 20.4 °F 30.34 in SSE 1.7 mph -999.0 mph 38% 0 in
19:23 44.6 °F 19.3 °F 30.34 in South 1.7 mph -999.0 mph 36% 0 in
19:38 44.6 °F 19.3 °F 30.34 in Calm   -999.0 mph 36% 0 in
19:53 44.1 °F 19.5 °F 30.34 in Calm   -999.0 mph 37% 0 in
20:08 43.0 °F 21.5 °F 30.33 in Calm   -999.0 mph 42% 0 in
20:24 42.3 °F 19.7 °F 30.34 in Calm   -999.0 mph 40% 0 in
20:39 41.7 °F 19.1 °F 30.33 in South 2.2 mph -999.0 mph 40% 0 in
20:54 40.8 °F 18.3 °F 30.34 in Calm   -999.0 mph 40% 0 in
21:09 40.3 °F 17.9 °F 30.34 in Calm   -999.0 mph 40% 0 in
21:24 39.9 °F 18.1 °F 30.34 in Calm   -999.0 mph 41% 0 in
21:40 40.1 °F 18.3 °F 30.34 in Calm   -999.0 mph 41% 0 in
21:55 39.7 °F 18.5 °F 30.35 in SSE 1.7 mph -999.0 mph 42% 0 in
22:10 40.6 °F 18.7 °F 30.34 in SSE 2.2 mph -999.0 mph 41% 0 in
22:25 42.3 °F 18.5 °F 30.35 in South 1.7 mph -999.0 mph 38% 0 in
22:40 44.6 °F 18.6 °F 30.35 in South 1.7 mph -999.0 mph 35% 0 in
22:56 44.8 °F 18.8 °F 30.35 in Calm   -999.0 mph 35% 0 in
23:11 43.5 °F 20.2 °F 30.34 in Calm   -999.0 mph 39% 0 in
23:26 43.3 °F 20.0 °F 30.34 in Calm   -999.0 mph 39% 0 in
23:41 42.8 °F 20.7 °F 30.34 in SSE 2.2 mph -999.0 mph 41% 0 in
23:57 42.6 °F 19.9 °F 30.34 in Calm   -999.0 mph 40% 0 in
Big Bear CA Weather